Time;durP1;ratioP1;P1;durP2;ratioP2;P2;SDS_P1;SDS_P2;PMS_P1;PMS_P2;Temp;Humidity;BMP_temperature;BMP_pressure;BME280_temperature;BME280_humidity;BME280_pressure;Samples;Min_cycle;Max_cycle;Signal;HPM_P1;HPM_P2
2022/11/28 00:01:28;;;;;;;8.43;5.68;;;;;;;16.47;36.05;102156.53;4991121;28;20030;-94
2022/11/28 00:03:54;;;;;;;14.75;7.03;;;;;;;16.41;35.89;102142.94;5012000;28;20101;-94
2022/11/28 00:06:20;;;;;;;11.38;6.95;;;;;;;16.44;35.81;102156.06;5014053;28;20108;-95
2022/11/28 00:08:46;;;;;;;12.50;6.78;;;;;;;16.52;35.95;102158.66;5028998;28;20078;-93
2022/11/28 00:11:13;;;;;;;12.43;6.60;;;;;;;16.41;35.96;102142.94;4987834;28;20032;-94
2022/11/28 00:13:39;;;;;;;12.57;6.88;;;;;;;16.41;35.89;102143.75;5027663;28;20085;-94
2022/11/28 00:16:20;;;;;;;10.25;6.13;;;;;;;16.51;35.98;102168.63;4997200;28;20451;-94
2022/11/28 00:18:51;;;;;;;9.98;6.50;;;;;;;16.42;35.96;102137.34;4996714;28;20029;-94
2022/11/28 00:21:17;;;;;;;8.90;5.70;;;;;;;16.48;36.00;102149.25;5008250;28;20022;-94
2022/11/28 00:23:43;;;;;;;11.13;6.50;;;;;;;16.45;35.85;102146.91;5000974;28;20036;-94
2022/11/28 00:26:16;;;;;;;12.77;6.57;;;;;;;16.46;35.85;102137.81;4998495;28;20025;-94
2022/11/28 00:28:42;;;;;;;11.60;6.88;;;;;;;16.46;35.85;102132.41;5013485;28;20196;-93
2022/11/28 00:31:19;;;;;;;11.32;6.22;;;;;;;16.44;35.95;102139.88;5001123;28;20033;-94
2022/11/28 00:33:44;;;;;;;10.73;6.15;;;;;;;16.45;35.91;102130.72;4991179;28;20108;-93
2022/11/28 00:36:10;;;;;;;11.15;6.10;;;;;;;16.48;35.80;102141.16;4973887;28;21431;-95
2022/11/28 00:38:36;;;;;;;10.43;6.05;;;;;;;16.46;35.84;102137.81;4958241;28;20045;-94
2022/11/28 00:41:15;;;;;;;14.18;6.45;;;;;;;16.50;36.04;102131.84;4958258;28;20030;-94
2022/11/28 00:43:41;;;;;;;10.38;5.97;;;;;;;16.45;35.72;102136.13;4958443;28;20353;-93
2022/11/28 00:46:07;;;;;;;10.07;5.93;;;;;;;16.46;36.11;102145.91;4962397;28;20030;-94
2022/11/28 00:48:33;;;;;;;10.27;5.93;;;;;;;16.45;35.86;102126.19;4956947;28;21735;-94
2022/11/28 00:51:09;;;;;;;10.98;5.93;;;;;;;16.54;35.94;102143.13;4960093;28;20049;-94
2022/11/28 00:53:35;;;;;;;9.82;5.93;;;;;;;16.45;36.07;102134.28;4969303;28;20026;-94
2022/11/28 00:56:06;;;;;;;10.10;5.80;;;;;;;16.53;35.89;102138.75;4965841;28;20142;-95
2022/11/28 00:58:32;;;;;;;12.85;6.68;;;;;;;16.46;35.86;102124.31;4961520;28;20030;-93
2022/11/28 01:00:58;;;;;;;11.85;6.35;;;;;;;16.45;35.93;102125.34;4967933;28;20025;-95
2022/11/28 01:03:24;;;;;;;11.73;6.32;;;;;;;16.53;35.87;102134.19;4963842;28;20034;-95
2022/11/28 01:05:52;;;;;;;9.52;6.03;;;;;;;16.53;35.89;102136.06;4980178;28;20121;-93
2022/11/28 01:08:18;;;;;;;11.23;6.32;;;;;;;16.52;36.01;102137.06;4978104;28;20295;-94
2022/11/28 01:10:44;;;;;;;14.40;6.47;;;;;;;16.56;35.95;102138.38;4974710;28;20034;-94
2022/11/28 01:13:10;;;;;;;10.85;6.00;;;;;;;16.55;36.07;102134.00;4976944;28;20515;-94
2022/11/28 01:15:36;;;;;;;9.85;5.85;;;;;;;16.52;35.97;102135.22;4965245;28;20018;-94
2022/11/28 01:18:01;;;;;;;9.13;5.80;;;;;;;16.56;35.95;102133.00;4963332;28;20396;-94
2022/11/28 01:20:27;;;;;;;10.68;5.70;;;;;;;16.53;35.91;102127.97;4967859;28;20029;-94
2022/11/28 01:22:56;;;;;;;10.85;6.15;;;;;;;16.55;35.99;102127.78;4959024;28;20041;-93
2022/11/28 01:25:22;;;;;;;10.02;5.75;;;;;;;16.54;35.84;102121.53;4964276;28;20029;-94
2022/11/28 01:27:47;;;;;;;10.27;6.10;;;;;;;16.58;36.00;102130.09;4979763;28;20030;-93
2022/11/28 01:30:13;;;;;;;10.27;6.05;;;;;;;16.56;35.78;102127.59;4969014;28;20401;-94
2022/11/28 01:32:39;;;;;;;9.75;5.90;;;;;;;16.51;35.77;102113.81;4983027;28;20125;-94
2022/11/28 01:35:05;;;;;;;11.73;6.05;;;;;;;16.55;35.92;102115.09;4973527;28;20139;-93
2022/11/28 01:37:30;;;;;;;10.75;5.75;;;;;;;16.58;35.96;102119.31;5018449;28;20555;-94
2022/11/28 01:39:56;;;;;;;9.55;5.45;;;;;;;16.58;35.93;102125.53;5017271;28;20029;-93
2022/11/28 01:42:22;;;;;;;10.85;6.47;;;;;;;16.57;35.97;102126.56;5017647;28;20037;-94
2022/11/28 01:44:48;;;;;;;13.70;6.20;;;;;;;16.60;36.02;102128.06;4999912;28;20025;-94
2022/11/28 01:47:19;;;;;;;9.63;5.75;;;;;;;16.60;35.94;102134.28;5032417;28;20037;-93
2022/11/28 01:49:45;;;;;;;11.23;5.85;;;;;;;16.56;36.00;102116.78;4994159;28;20273;-94
2022/11/28 01:52:12;;;;;;;12.32;5.78;;;;;;;16.58;36.05;102127.41;5009616;28;20027;-94
2022/11/28 01:54:38;;;;;;;11.13;6.05;;;;;;;16.58;35.89;102124.72;5008037;28;20442;-93
2022/11/28 01:57:23;;;;;;;10.13;5.97;;;;;;;16.58;36.03;102130.94;5007412;28;20021;-94
2022/11/28 02:00:11;;;;;;;14.52;6.13;;;;;;;16.61;35.95;102132.41;5030789;28;20033;-94
2022/11/28 02:02:43;;;;;;;9.30;5.45;;;;;;;16.57;36.04;102128.41;5013900;28;20478;-94
2022/11/28 02:05:09;;;;;;;10.07;5.43;;;;;;;16.54;35.91;102129.66;5002347;28;20037;-93
2022/11/28 02:07:34;;;;;;;12.05;5.88;;;;;;;16.59;36.02;102137.16;5008929;28;20488;-94
2022/11/28 02:10:01;;;;;;;9.48;5.30;;;;;;;16.55;36.05;102136.69;5012709;28;20044;-93
2022/11/28 02:12:33;;;;;;;9.98;6.35;;;;;;;16.58;35.90;102136.34;5001939;28;20060;-93
2022/11/28 02:15:20;;;;;;;10.45;5.88;;;;;;;16.60;36.03;102133.47;4999040;28;20111;-93
2022/11/28 02:17:54;;;;;;;11.82;6.25;;;;;;;16.58;36.10;102125.53;5025219;28;20110;-94
2022/11/28 02:20:29;;;;;;;;;;;;;;;16.60;35.96;102128.88;5009381;28;20037;-93
2022/11/28 02:23:00;;;;;;;9.65;5.70;;;;;;;16.62;36.03;102123.31;5011544;28;19916;-94
2022/11/28 02:25:57;;;;;;;14.13;6.07;;;;;;;16.62;36.08;102121.44;5029493;28;20056;-96
2022/11/28 02:28:34;;;;;;;9.35;5.60;;;;;;;16.61;36.01;102118.91;5018744;28;20037;-94
2022/11/28 02:31:24;;;;;;;10.38;5.97;;;;;;;16.58;36.07;102113.91;5025820;28;20476;-93
2022/11/28 02:34:11;;;;;;;12.43;6.13;;;;;;;16.55;35.87;102127.78;5023066;28;20025;-94
2022/11/28 02:36:46;;;;;;;12.65;5.88;;;;;;;16.61;35.96;102129.72;5002088;28;20049;-93
2022/11/28 02:39:36;;;;;;;11.48;6.63;;;;;;;16.58;36.16;102128.25;5020101;28;20097;-94
2022/11/28 02:42:11;;;;;;;10.57;6.28;;;;;;;16.59;36.08;102135.31;4997108;28;20049;-93
2022/11/28 02:44:47;;;;;;;10.15;6.10;;;;;;;16.60;35.93;102130.75;5006427;28;20032;-94
2022/11/28 02:47:22;;;;;;;9.50;6.00;;;;;;;16.59;35.97;102127.22;5028911;28;20030;-94
2022/11/28 02:49:54;;;;;;;12.18;6.53;;;;;;;16.60;36.09;102134.28;5019996;28;20021;-94
2022/11/28 02:52:27;;;;;;;9.85;6.22;;;;;;;16.59;35.96;102132.63;4996462;28;20041;-93
2022/11/28 02:54:53;;;;;;;12.18;6.57;;;;;;;16.61;36.04;102140.50;5015925;28;20551;-95
2022/11/28 02:57:19;;;;;;;9.77;6.07;;;;;;;16.59;36.10;102132.63;5003697;28;21397;-93
2022/11/28 02:59:48;;;;;;;10.50;5.80;;;;;;;16.58;36.01;102125.53;5026169;28;20116;-94
2022/11/28 03:02:18;;;;;;;11.75;5.85;;;;;;;16.62;36.06;102131.41;4999361;28;20032;-94
2022/11/28 03:05:16;;;;;;;11.07;5.82;;;;;;;16.57;35.96;102123.84;5014724;28;20013;-94
2022/11/28 03:07:56;;;;;;;10.32;6.30;;;;;;;16.58;36.41;102124.72;5002535;28;20492;-95
2022/11/28 03:10:52;;;;;;;9.70;5.78;;;;;;;16.59;36.11;102131.75;5015147;28;20029;-94
2022/11/28 03:13:21;;;;;;;12.20;6.18;;;;;;;16.62;36.00;102134.09;5027265;28;21382;-94
2022/11/28 03:16:17;;;;;;;11.77;6.35;;;;;;;16.62;36.07;102137.63;5029694;28;20084;-94
2022/11/28 03:19:23;;;;;;;13.25;6.65;;;;;;;16.61;36.04;102135.13;5028001;28;20036;-93
2022/11/28 03:22:12;;;;;;;11.00;6.38;;;;;;;16.60;35.99;102138.84;5021077;28;20041;-94
2022/11/28 03:24:54;;;;;;;9.85;6.10;;;;;;;16.59;36.10;102135.31;4997192;28;20072;-94
2022/11/28 03:27:28;;;;;;;12.18;6.13;;;;;;;16.63;36.15;102143.88;5017283;28;20603;-94
2022/11/28 03:29:56;;;;;;;15.30;6.03;;;;;;;16.57;36.09;102126.56;5028364;28;20108;-93
2022/11/28 03:32:28;;;;;;;12.63;6.80;;;;;;;16.58;36.02;102136.34;4992295;28;20033;-94
2022/11/28 03:34:57;;;;;;;12.27;6.38;;;;;;;16.62;36.06;102142.19;5003510;28;20037;-94
2022/11/28 03:37:45;;;;;;;9.32;5.53;;;;;;;16.61;36.00;102141.38;5022564;28;20033;-94
2022/11/28 03:40:14;;;;;;;10.57;5.80;;;;;;;16.60;35.99;102136.97;5023146;28;20049;-94
2022/11/28 03:42:41;;;;;;;10.15;5.88;;;;;;;16.62;36.20;102139.50;5013796;28;20030;-94
2022/11/28 03:45:10;;;;;;;12.32;6.75;;;;;;;16.63;36.01;102141.19;4997619;28;20392;-94
2022/11/28 03:47:41;;;;;;;10.70;6.45;;;;;;;16.61;36.06;102135.97;5011704;28;20029;-94
2022/11/28 03:50:09;;;;;;;10.15;5.80;;;;;;;16.62;35.99;102136.81;4996542;28;20072;-93
2022/11/28 03:52:38;;;;;;;13.23;5.95;;;;;;;16.62;36.00;102137.63;4994258;28;20120;-94
2022/11/28 03:55:30;;;;;;;11.35;6.20;;;;;;;16.59;35.95;102135.31;5007580;28;20032;-94
2022/11/28 03:58:20;;;;;;;11.15;6.72;;;;;;;16.61;36.07;102146.78;5015264;28;20034;-94
2022/11/28 04:01:14;;;;;;;11.45;6.30;;;;;;;16.59;36.22;102143.44;5008607;28;20222;-95
2022/11/28 04:03:52;;;;;;;12.55;6.63;;;;;;;16.60;36.06;102142.38;5003430;28;20084;-94
2022/11/28 04:06:21;;;;;;;9.40;6.35;;;;;;;16.61;36.07;102154.88;5009647;28;20041;-94
2022/11/28 04:09:08;;;;;;;10.82;6.15;;;;;;;16.60;36.09;102150.47;4999810;28;20022;-94
2022/11/28 04:11:38;;;;;;;8.50;6.15;;;;;;;16.63;36.09;102154.69;5016080;28;20035;-95
2022/11/28 04:14:19;;;;;;;10.40;6.15;;;;;;;16.61;36.07;102157.56;4991955;28;20084;-94
2022/11/28 04:16:47;;;;;;;13.40;6.10;;;;;;;16.60;36.08;102157.75;4996043;28;20281;-94
2022/11/28 04:19:28;;;;;;;10.90;5.85;;;;;;;16.60;36.06;102150.47;5030497;28;20025;-93
2022/11/28 04:22:02;;;;;;;11.90;6.40;;;;;;;16.62;36.14;102164.63;5011365;28;20498;-94
2022/11/28 04:24:32;;;;;;;10.50;6.35;;;;;;;16.60;36.09;102161.28;5029097;28;20457;-94
2022/11/28 04:27:03;;;;;;;9.70;6.30;;;;;;;16.57;36.32;102145.44;4997260;28;20036;-95
2022/11/28 04:29:32;;;;;;;13.10;6.57;;;;;;;16.63;36.06;102152.00;4996796;28;20036;-95
2022/11/28 04:31:58;;;;;;;12.02;6.30;;;;;;;16.61;36.08;102152.16;4996955;28;20086;-94
2022/11/28 04:34:23;;;;;;;11.00;6.47;;;;;;;16.60;36.16;102149.66;5009076;28;20365;-95
2022/11/28 04:36:49;;;;;;;8.90;5.55;;;;;;;16.60;36.14;102150.47;4961723;28;20064;-94
2022/11/28 04:39:20;;;;;;;11.90;6.00;;;;;;;16.61;36.04;102156.72;4957153;28;20026;-94
2022/11/28 04:41:58;;;;;;;11.52;6.68;;;;;;;16.63;36.16;102166.31;4962066;28;20095;-94
2022/11/28 04:44:27;;;;;;;10.38;6.43;;;;;;;16.63;36.17;102160.91;4958812;28;20558;-93
2022/11/28 04:46:53;;;;;;;8.55;6.35;;;;;;;16.60;36.17;102149.66;4983008;28;20477;-94
2022/11/28 04:49:19;;;;;;;10.45;6.03;;;;;;;16.62;36.25;102161.09;4961051;28;20029;-93
2022/11/28 04:51:47;;;;;;;10.77;6.22;;;;;;;16.62;36.16;102159.22;4980049;28;20090;-95
2022/11/28 04:54:19;;;;;;;10.95;6.20;;;;;;;16.63;36.20;102160.91;4992650;28;20116;-92
2022/11/28 04:56:50;;;;;;;11.63;6.22;;;;;;;16.63;36.18;102158.22;4985979;28;20037;-94
2022/11/28 04:59:16;;;;;;;12.80;6.45;;;;;;;16.58;36.12;102151.69;4971950;28;20041;-94
2022/11/28 05:01:42;;;;;;;12.18;6.60;;;;;;;16.63;36.18;102160.09;4964811;28;20030;-94
2022/11/28 05:04:08;;;;;;;11.63;6.15;;;;;;;16.64;36.20;102159.91;4977451;28;20033;-93
2022/11/28 05:06:34;;;;;;;9.05;6.22;;;;;;;16.60;36.22;102163.16;4974946;28;20488;-94
2022/11/28 05:09:00;;;;;;;11.55;6.10;;;;;;;16.61;36.14;102160.28;4958973;28;20022;-94
2022/11/28 05:11:26;;;;;;;12.07;6.90;;;;;;;16.64;36.29;102168.00;4957916;28;20490;-95
2022/11/28 05:13:52;;;;;;;12.20;6.40;;;;;;;16.65;36.09;102172.34;4980775;28;20030;-94
2022/11/28 05:16:18;;;;;;;11.50;6.43;;;;;;;16.59;36.03;102166.84;4961410;28;20041;-95
2022/11/28 05:18:44;;;;;;;10.73;5.70;;;;;;;16.60;36.23;102174.78;4974916;28;20021;-95
2022/11/28 05:21:10;;;;;;;10.35;5.78;;;;;;;16.62;36.13;102171.88;4964970;28;20026;-95
2022/11/28 05:23:39;;;;;;;11.73;6.57;;;;;;;16.63;36.21;102171.72;4965806;28;20618;-93
2022/11/28 05:26:14;;;;;;;13.00;5.88;;;;;;;16.65;36.11;102179.63;4978452;28;20116;-93
2022/11/28 05:28:42;;;;;;;12.20;6.20;;;;;;;16.60;36.24;102168.53;4972812;28;20053;-94
2022/11/28 05:31:08;;;;;;;11.57;5.75;;;;;;;16.62;36.12;102180.00;4994053;28;20037;-94
2022/11/28 05:33:34;;;;;;;11.80;6.60;;;;;;;16.63;35.88;102178.97;4982943;28;20025;-95
2022/11/28 05:36:06;;;;;;;11.23;6.25;;;;;;;16.62;36.26;102186.22;4986116;28;20417;-94
2022/11/28 05:38:32;;;;;;;11.07;5.93;;;;;;;16.65;36.27;102183.16;4991403;28;20036;-95
2022/11/28 05:40:58;;;;;;;11.38;6.82;;;;;;;16.65;36.27;102185.03;4991049;28;20038;-94
2022/11/28 05:43:24;;;;;;;11.55;7.05;;;;;;;16.62;36.12;102175.41;5013700;28;20029;-95
2022/11/28 05:45:50;;;;;;;11.40;6.43;;;;;;;16.62;36.00;102172.72;5013989;28;20361;-94
2022/11/28 05:48:15;;;;;;;9.52;5.70;;;;;;;16.65;36.15;102174.22;5009837;28;20249;-94
2022/11/28 05:50:41;;;;;;;11.85;5.93;;;;;;;16.64;36.13;102169.84;5004956;28;20118;-94
2022/11/28 05:53:07;;;;;;;11.40;6.18;;;;;;;16.64;36.11;102178.81;5001998;28;20174;-95
2022/11/28 05:55:33;;;;;;;10.57;6.05;;;;;;;16.63;36.10;102177.13;4999646;28;20086;-94
2022/11/28 05:57:59;;;;;;;11.95;5.97;;;;;;;16.61;36.17;102168.38;5021415;28;20025;-94
2022/11/28 06:00:24;;;;;;;10.10;6.38;;;;;;;16.60;36.23;102166.69;4996398;28;20439;-94
2022/11/28 06:02:50;;;;;;;10.27;5.90;;;;;;;16.60;36.22;102166.69;5021073;28;20626;-94
2022/11/28 06:05:16;;;;;;;10.68;6.50;;;;;;;16.67;36.08;102182.97;5013229;28;20053;-94
2022/11/28 06:07:41;;;;;;;11.20;5.95;;;;;;;16.63;36.09;102187.06;4996614;28;20026;-94
2022/11/28 06:10:07;;;;;;;13.23;5.95;;;;;;;16.58;36.25;102179.53;5016015;28;20064;-94
2022/11/28 06:12:33;;;;;;;11.13;6.70;;;;;;;16.65;36.17;102191.25;4999985;28;20021;-94
2022/11/28 06:14:59;;;;;;;9.95;6.03;;;;;;;16.62;36.21;102183.53;5011365;28;25208;-94
2022/11/28 06:17:24;;;;;;;9.15;6.03;;;;;;;16.66;36.25;102190.25;5000697;28;20037;-93
2022/11/28 06:19:50;;;;;;;10.43;6.30;;;;;;;16.64;36.09;102192.28;5027017;28;20032;-94
2022/11/28 06:22:16;;;;;;;10.10;6.00;;;;;;;16.60;36.14;102179.34;5013441;28;20520;-95
2022/11/28 06:24:41;;;;;;;10.05;6.18;;;;;;;16.62;36.22;102188.91;5004468;28;20043;-95
2022/11/28 06:27:07;;;;;;;10.57;5.97;;;;;;;16.62;36.17;102186.22;5001846;28;20022;-95
2022/11/28 06:29:33;;;;;;;11.55;6.38;;;;;;;16.63;36.12;102187.06;4994076;28;20023;-96
2022/11/28 06:31:58;;;;;;;10.65;6.00;;;;;;;16.63;36.15;102176.28;5002742;28;20033;-95
2022/11/28 06:34:24;;;;;;;10.32;5.97;;;;;;;16.67;36.21;102199.19;5014039;28;20037;-94
2022/11/28 06:36:50;;;;;;;10.23;6.25;;;;;;;16.65;36.28;102193.97;4965217;28;20030;-94
2022/11/28 06:39:18;;;;;;;10.55;6.25;;;;;;;16.65;36.29;102188.56;4979292;28;20092;-94
2022/11/28 06:41:44;;;;;;;9.90;6.47;;;;;;;16.64;36.34;102195.00;4984237;28;20032;-94
2022/11/28 06:44:13;;;;;;;9.07;5.93;;;;;;;16.63;36.35;102187.91;4982140;28;20102;-94
2022/11/28 06:46:39;;;;;;;12.25;6.72;;;;;;;16.64;35.97;102192.28;4965190;28;20021;-94
2022/11/28 06:49:05;;;;;;;11.95;6.45;;;;;;;16.64;36.19;102199.53;4985625;28;20032;-93
2022/11/28 06:51:30;;;;;;;10.30;6.03;;;;;;;16.64;36.19;102200.41;4964346;28;20028;-95
2022/11/28 06:53:56;;;;;;;9.98;6.07;;;;;;;16.65;36.11;102202.06;4969094;28;20115;-94
2022/11/28 06:56:25;;;;;;;10.18;5.65;;;;;;;16.63;36.24;102196.00;4957444;28;20044;-94
2022/11/28 06:58:55;;;;;;;11.15;6.00;;;;;;;16.66;36.28;102206.44;4973188;28;20030;-93
2022/11/28 07:01:21;;;;;;;10.23;5.80;;;;;;;16.66;36.14;102208.28;4981205;28;20029;-94
2022/11/28 07:03:47;;;;;;;10.32;6.18;;;;;;;16.64;36.22;102205.78;4959603;28;20391;-94
2022/11/28 07:06:14;;;;;;;9.77;6.13;;;;;;;16.64;36.37;102215.72;4964777;28;20026;-95
2022/11/28 07:08:39;;;;;;;10.75;5.95;;;;;;;16.65;36.21;102217.41;4964415;28;20138;-94
2022/11/28 07:11:11;;;;;;;11.35;6.15;;;;;;;16.65;36.23;102204.75;4964486;28;20048;-94
2022/11/28 07:13:36;;;;;;;9.13;5.55;;;;;;;16.65;36.27;102207.44;4958129;28;20061;-94
2022/11/28 07:16:02;;;;;;;10.40;5.57;;;;;;;16.67;36.32;102205.41;4990401;28;20409;-94
2022/11/28 07:18:28;;;;;;;9.63;5.82;;;;;;;16.66;36.26;102211.84;4957015;28;20384;-94
2022/11/28 07:20:54;;;;;;;9.27;5.72;;;;;;;16.67;36.20;102209.97;4984701;28;20361;-95
2022/11/28 07:23:19;;;;;;;16.17;6.65;;;;;;;16.65;36.30;102212.84;4969471;28;20034;-94
2022/11/28 07:25:45;;;;;;;9.55;5.63;;;;;;;16.67;36.20;102221.59;4964561;28;20034;-94
2022/11/28 07:28:11;;;;;;;10.45;6.30;;;;;;;16.66;36.13;102209.13;4983319;28;20022;-95
2022/11/28 07:30:36;;;;;;;11.50;5.70;;;;;;;16.62;36.07;102207.81;4980264;28;20068;-93
2022/11/28 07:33:02;;;;;;;9.00;5.68;;;;;;;16.65;36.24;102206.63;4966893;28;20441;-95
2022/11/28 07:35:27;;;;;;;9.38;5.85;;;;;;;16.64;36.22;102216.59;5000018;28;20071;-96
2022/11/28 07:37:54;;;;;;;9.30;5.80;;;;;;;16.66;36.20;102217.25;5017586;28;20167;-94
2022/11/28 07:40:21;;;;;;;10.77;6.03;;;;;;;16.67;36.12;102221.59;5013918;28;20392;-94
2022/11/28 07:42:47;;;;;;;10.15;5.70;;;;;;;16.69;36.25;102221.41;5003115;28;20480;-95
2022/11/28 07:45:13;;;;;;;8.68;5.35;;;;;;;16.68;36.35;102228.69;4995419;28;20244;-94
2022/11/28 07:47:39;;;;;;;8.25;5.32;;;;;;;16.67;36.19;102227.00;5022351;28;20025;-94
2022/11/28 07:50:08;;;;;;;9.77;5.82;;;;;;;16.61;36.36;102213.38;4995207;28;20377;-93
2022/11/28 07:52:33;;;;;;;9.07;5.90;;;;;;;16.65;36.39;102222.81;5012782;28;20036;-94
2022/11/28 07:54:59;;;;;;;8.82;5.32;;;;;;;16.69;36.27;102224.97;5000143;28;20430;-96
2022/11/28 07:57:24;;;;;;;10.35;5.60;;;;;;;16.67;36.21;102226.16;4999478;28;20086;-95
2022/11/28 07:59:50;;;;;;;9.57;5.72;;;;;;;16.64;36.22;102229.22;5017209;28;20052;-94
2022/11/28 08:02:16;;;;;;;9.27;5.68;;;;;;;16.62;36.17;102215.91;5013549;28;20092;-95
2022/11/28 08:04:41;;;;;;;9.82;5.78;;;;;;;16.67;36.28;102242.38;5016493;28;20080;-94
2022/11/28 08:07:07;;;;;;;9.32;5.28;;;;;;;16.67;36.37;102242.38;5000226;28;20102;-95
2022/11/28 08:09:33;;;;;;;8.25;5.22;;;;;;;16.66;36.18;102241.53;5002466;28;20033;-95
2022/11/28 08:11:58;;;;;;;9.73;5.93;;;;;;;16.67;36.23;102242.38;5019496;28;20025;-95
2022/11/28 08:14:24;;;;;;;8.63;5.80;;;;;;;16.66;36.07;102241.53;5016981;28;20071;-94
2022/11/28 08:16:50;;;;;;;9.63;5.88;;;;;;;16.60;36.30;102239.56;4995063;28;20028;-95
2022/11/28 08:19:16;;;;;;;11.52;5.88;;;;;;;16.68;36.15;102246.75;4998373;28;20032;-94
2022/11/28 08:21:41;;;;;;;7.90;5.40;;;;;;;16.66;36.30;102243.38;4998159;28;20116;-95
2022/11/28 08:24:07;;;;;;;8.35;5.45;;;;;;;16.67;36.36;102245.91;5008173;28;20083;-95
2022/11/28 08:26:33;;;;;;;9.65;5.45;;;;;;;16.66;36.37;102249.63;5013014;28;20025;-93
2022/11/28 08:28:59;;;;;;;9.15;5.47;;;;;;;16.67;36.26;102248.59;5009304;28;20209;-95
2022/11/28 08:31:30;;;;;;;9.57;5.32;;;;;;;16.67;36.38;102248.59;4997488;28;20545;-94
2022/11/28 08:33:57;;;;;;;9.77;5.53;;;;;;;16.64;36.29;102248.97;5001147;28;20412;-94
2022/11/28 08:36:23;;;;;;;11.20;5.88;;;;;;;16.65;36.21;102245.25;4994066;28;20037;-95
2022/11/28 08:38:49;;;;;;;8.73;5.20;;;;;;;16.70;36.12;102253.63;5013937;28;20029;-94
2022/11/28 08:41:19;;;;;;;7.15;4.57;;;;;;;16.67;36.36;102248.59;4997102;28;20127;-94
2022/11/28 08:43:45;;;;;;;8.52;5.55;;;;;;;16.69;36.21;102254.69;5012300;28;20032;-95
2022/11/28 08:46:12;;;;;;;8.82;5.50;;;;;;;16.66;36.31;102252.34;4998699;28;20022;-94
2022/11/28 08:48:38;;;;;;;8.43;5.75;;;;;;;16.70;36.32;102261.75;5002813;28;20560;-95
2022/11/28 08:51:13;;;;;;;7.93;4.97;;;;;;;16.70;36.23;102258.22;4997693;28;20140;-95
2022/11/28 08:53:39;;;;;;;7.18;5.18;;;;;;;16.68;36.33;102254.84;5014384;28;20111;-95
2022/11/28 08:56:08;;;;;;;8.30;5.70;;;;;;;16.69;36.36;102251.97;5007605;28;20036;-94
2022/11/28 08:58:36;;;;;;;7.75;5.07;;;;;;;16.66;36.22;102252.34;4994961;28;20025;-94
2022/11/28 09:01:02;;;;;;;10.05;5.30;;;;;;;16.67;36.17;102256.69;4991637;28;20027;-94
2022/11/28 09:03:27;;;;;;;9.02;5.28;;;;;;;16.70;36.47;102259.03;5012631;28;20037;-94
2022/11/28 09:05:56;;;;;;;7.82;5.15;;;;;;;16.70;36.41;102256.34;5011136;28;20086;-94
2022/11/28 09:08:22;;;;;;;9.40;5.25;;;;;;;16.70;36.50;102258.22;5011405;28;20075;-94
2022/11/28 09:10:47;;;;;;;8.88;5.30;;;;;;;16.69;36.25;102251.97;4998310;28;20108;-96
2022/11/28 09:13:13;;;;;;;8.80;5.35;;;;;;;16.62;36.30;102245.59;4993285;28;20561;-95
2022/11/28 09:15:43;;;;;;;10.30;5.38;;;;;;;16.67;36.40;102251.28;4997048;28;20571;-94
2022/11/28 09:18:09;;;;;;;9.05;5.75;;;;;;;16.67;36.42;102251.28;5000321;28;20025;-94
2022/11/28 09:20:34;;;;;;;8.77;5.07;;;;;;;16.70;36.34;102253.63;5002623;28;20148;-94
2022/11/28 09:23:00;;;;;;;8.07;5.28;;;;;;;16.67;36.51;102251.28;4995268;28;20068;-94
2022/11/28 09:25:26;;;;;;;8.48;5.50;;;;;;;16.68;36.43;102247.59;5021464;28;20028;-96
2022/11/28 09:27:51;;;;;;;9.65;5.25;;;;;;;16.68;36.26;102252.16;5022675;28;20026;-94
2022/11/28 09:30:21;;;;;;;8.18;5.00;;;;;;;16.68;36.32;102244.88;5014627;28;20538;-94
2022/11/28 09:32:47;;;;;;;8.60;5.13;;;;;;;16.69;36.35;102246.56;4999574;28;20108;-94
2022/11/28 09:35:13;;;;;;;9.15;5.18;;;;;;;16.69;36.40;102251.97;4998405;28;21615;-94
2022/11/28 09:37:38;;;;;;;7.80;4.80;;;;;;;16.68;36.35;102244.88;4998552;28;20025;-94
2022/11/28 09:40:17;;;;;;;7.30;4.80;;;;;;;16.73;36.37;102251.59;5018959;28;20029;-94
2022/11/28 09:42:43;;;;;;;7.28;4.57;;;;;;;16.70;36.38;102253.63;5016807;28;20323;-95
2022/11/28 09:45:11;;;;;;;7.78;4.95;;;;;;;16.70;36.41;102248.22;5004984;28;21086;-95
2022/11/28 09:47:37;;;;;;;7.28;4.72;;;;;;;16.68;36.33;102244.06;5015782;28;20336;-94
2022/11/28 09:50:15;;;;;;;7.28;4.93;;;;;;;16.71;36.38;102249.94;4993351;28;20067;-93
2022/11/28 09:53:12;;;;;;;7.53;5.13;;;;;;;16.72;36.35;102250.75;5008060;28;20037;-94
2022/11/28 09:55:41;;;;;;;7.55;5.40;;;;;;;16.70;36.46;102242.00;5035555;28;20038;-94
2022/11/28 09:58:44;;;;;;;7.93;5.15;;;;;;;16.73;36.46;102247.06;5030934;28;20112;-95
2022/11/28 10:01:22;;;;;;;7.50;4.68;;;;;;;16.72;36.50;102242.66;5027423;28;20042;-94
2022/11/28 10:04:19;;;;;;;7.82;5.25;;;;;;;16.70;36.26;102248.22;5031799;28;20387;-95
2022/11/28 10:07:00;;;;;;;8.45;5.30;;;;;;;16.70;36.47;102240.13;5004574;28;20041;-95
2022/11/28 10:09:35;;;;;;;8.73;5.22;;;;;;;16.70;36.50;102242.84;4996084;28;20029;-94
2022/11/28 10:12:32;;;;;;;7.30;4.80;;;;;;;16.70;36.40;102242.84;5032442;28;20442;-94
2022/11/28 10:15:17;;;;;;;8.27;4.93;;;;;;;16.69;36.42;102230.38;5033269;28;20441;-95
2022/11/28 10:18:01;;;;;;;7.40;5.03;;;;;;;16.73;36.40;102238.09;5014032;28;20026;-95
2022/11/28 10:20:30;;;;;;;7.65;5.10;;;;;;;16.70;36.62;102237.44;5034541;28;20035;-94
2022/11/28 10:23:01;;;;;;;6.78;5.03;;;;;;;16.68;36.34;102233.25;4997337;28;20025;-94
2022/11/28 10:25:43;;;;;;;7.30;4.85;;;;;;;16.70;36.48;102228.50;5001399;28;20480;-96
2022/11/28 10:28:15;;;;;;;6.63;4.65;;;;;;;16.71;36.51;102235.56;5000942;28;20033;-94
2022/11/28 10:30:42;;;;;;;7.38;4.80;;;;;;;16.68;36.60;102228.69;5016588;28;20030;-95
2022/11/28 10:33:16;;;;;;;7.00;4.75;;;;;;;16.70;36.46;102223.94;5002920;28;20503;-94
2022/11/28 10:35:43;;;;;;;8.55;5.10;;;;;;;16.70;36.54;102226.63;5016930;28;20855;-95
2022/11/28 10:38:12;;;;;;;7.97;5.10;;;;;;;16.70;36.57;102215.84;5026214;28;20484;-95
2022/11/28 10:40:49;;;;;;;8.20;5.25;;;;;;;16.74;36.41;102220.88;4998085;28;20488;-94
2022/11/28 10:43:32;;;;;;;7.38;5.15;;;;;;;16.72;36.54;102215.66;5033359;28;20550;-94
2022/11/28 10:46:01;;;;;;;8.65;4.90;;;;;;;16.70;36.46;102221.25;5026659;28;20499;-94
2022/11/28 10:48:33;;;;;;;7.18;4.85;;;;;;;16.73;36.65;102224.59;5027206;28;20087;-94
2022/11/28 10:51:10;;;;;;;7.82;5.00;;;;;;;16.74;36.25;102223.56;5016498;28;20400;-95
2022/11/28 10:53:51;;;;;;;8.23;5.03;;;;;;;16.70;36.75;102215.84;5008679;28;20049;-94
2022/11/28 10:56:34;;;;;;;8.05;4.93;;;;;;;16.74;36.46;102218.19;5023905;28;20052;-94
2022/11/28 10:59:38;;;;;;;8.50;4.93;;;;;;;16.74;36.54;102216.31;5007970;28;20445;-95
2022/11/28 11:02:26;;;;;;;9.52;4.97;;;;;;;16.73;36.47;102219.19;4958268;28;20133;-95
2022/11/28 11:04:51;;;;;;;7.15;5.32;;;;;;;16.70;36.43;102215.84;4962639;28;20109;-95
2022/11/28 11:07:22;;;;;;;8.40;5.13;;;;;;;16.69;36.52;102214.19;4973354;28;20133;-95
2022/11/28 11:09:48;;;;;;;7.45;5.30;;;;;;;16.67;36.52;102210.81;5003109;28;20116;-94
2022/11/28 11:12:26;;;;;;;6.78;4.63;;;;;;;16.71;36.33;102216.66;5037030;28;20447;-94
2022/11/28 11:14:51;;;;;;;7.18;4.97;;;;;;;16.71;36.46;102212.13;5013872;28;20408;-95
2022/11/28 11:17:38;;;;;;;8.55;5.40;;;;;;;16.73;36.48;102214.66;4997585;28;20041;-94
2022/11/28 11:20:27;;;;;;;7.97;5.30;;;;;;;16.73;36.51;102216.50;5000205;28;20068;-93
2022/11/28 11:22:57;;;;;;;8.23;5.30;;;;;;;16.70;36.63;102215.84;5030818;28;20025;-95
2022/11/28 11:25:24;;;;;;;8.68;5.40;;;;;;;16.72;36.40;102218.34;4997074;28;20057;-93
2022/11/28 11:27:55;;;;;;;7.60;5.13;;;;;;;16.70;36.50;102215.84;4997984;28;20480;-94
2022/11/28 11:30:31;;;;;;;7.35;5.38;;;;;;;16.73;36.42;102219.19;4996958;28;20491;-94
2022/11/28 11:32:58;;;;;;;6.85;5.15;;;;;;;16.69;36.42;102207.91;5014290;28;20033;-96
2022/11/28 11:35:28;;;;;;;9.32;5.55;;;;;;;16.73;36.43;102221.88;5001113;28;20064;-95
2022/11/28 11:38:14;;;;;;;6.95;4.57;;;;;;;16.70;36.39;102207.75;5018032;28;20025;-94